Time;durP1;ratioP1;P1;durP2;ratioP2;P2;SDS_P1;SDS_P2;PMS_P1;PMS_P2;Temp;Humidity;BMP_temperature;BMP_pressure;BME280_temperature;BME280_humidity;BME280_pressure;Samples;Min_cycle;Max_cycle;Signal;HPM_P1;HPM_P2
2023/07/23 00:03:33;;;;;;;22.20;13.50;;;;;;;13.69;94.14;99039.85;272208;1267;25320;-78
2023/07/23 00:09:35;;;;;;;16.40;13.10;;;;;;;13.63;94.59;99037.50;271894;1258;22579;-78
2023/07/23 00:15:37;;;;;;;14.50;11.10;;;;;;;13.60;94.88;99033.80;272617;1267;22189;-80
2023/07/23 00:21:38;;;;;;;16.70;11.60;;;;;;;13.49;95.13;99033.41;272441;1267;22548;-78
2023/07/23 00:27:40;;;;;;;14.20;10.90;;;;;;;13.40;95.37;99032.85;271346;1267;22503;-79
2023/07/23 00:33:42;;;;;;;14.10;10.70;;;;;;;13.30;95.54;99026.73;272518;1269;22429;-78
2023/07/23 00:39:44;;;;;;;15.70;11.40;;;;;;;13.27;96.20;99027.35;273807;1267;22269;-79
2023/07/23 00:45:45;;;;;;;15.20;10.70;;;;;;;13.26;96.38;99027.05;273715;1267;22366;-78
2023/07/23 00:51:47;;;;;;;16.50;10.20;;;;;;;13.18;96.52;99021.94;273774;1267;23001;-78
2023/07/23 00:57:49;;;;;;;14.00;10.10;;;;;;;13.10;96.63;99017.20;271420;1268;22619;-79
2023/07/23 01:03:51;;;;;;;12.90;9.70;;;;;;;12.99;96.67;99013.88;271688;1260;22264;-78
2023/07/23 01:09:53;;;;;;;12.70;10.20;;;;;;;12.90;97.15;99017.68;272292;1267;22919;-78
2023/07/23 01:15:56;;;;;;;17.20;10.80;;;;;;;12.86;97.38;99019.64;271739;1266;24214;-78
2023/07/23 01:22:04;;;;;;;13.30;10.20;;;;;;;12.80;97.38;99014.98;270920;1263;22811;-78
2023/07/23 01:28:07;;;;;;;13.30;9.70;;;;;;;12.71;97.95;99013.71;271947;1266;22428;-78
2023/07/23 01:34:09;;;;;;;15.20;10.10;;;;;;;12.68;98.31;99006.33;273688;1266;23549;-78
2023/07/23 01:40:11;;;;;;;14.50;9.50;;;;;;;12.62;98.29;99003.88;273726;1256;22365;-78
2023/07/23 01:46:12;;;;;;;16.40;9.40;;;;;;;12.52;98.37;99005.66;273872;1256;23194;-78
2023/07/23 01:52:14;;;;;;;12.40;9.20;;;;;;;12.44;98.50;99002.72;272018;1267;22515;-78
2023/07/23 01:58:19;;;;;;;12.40;9.30;;;;;;;12.37;98.70;99003.64;272533;1269;24187;-79
2023/07/23 02:04:20;;;;;;;12.00;10.00;;;;;;;12.29;99.00;99014.02;271403;1266;23235;-77
2023/07/23 02:10:22;;;;;;;12.60;8.90;;;;;;;12.22;99.03;99024.50;271826;1269;22806;-77
2023/07/23 02:16:23;;;;;;;13.20;9.30;;;;;;;12.12;99.20;99026.42;272568;1257;23422;-77
2023/07/23 02:22:34;;;;;;;13.90;9.80;;;;;;;12.03;99.41;99027.70;273560;1267;22725;-80
2023/07/23 02:28:40;;;;;;;16.50;9.90;;;;;;;12.01;99.61;99020.86;273535;1269;23020;-77
2023/07/23 02:34:42;;;;;;;13.90;8.80;;;;;;;11.97;99.64;99023.11;273596;1268;23217;-77
2023/07/23 02:40:44;;;;;;;11.20;8.00;;;;;;;11.91;99.81;99025.19;273609;1267;22434;-77
2023/07/23 02:46:45;;;;;;;12.70;8.40;;;;;;;11.85;99.92;99026.64;273424;1256;22474;-77
2023/07/23 02:52:49;;;;;;;13.50;8.70;;;;;;;11.82;100.00;99022.33;273543;1267;23590;-77
2023/07/23 02:58:51;;;;;;;12.30;9.50;;;;;;;11.79;100.00;99019.48;273549;1269;22472;-77
2023/07/23 03:04:53;;;;;;;12.90;7.70;;;;;;;11.72;100.00;99014.96;273686;1258;22478;-77
2023/07/23 03:10:54;;;;;;;12.00;8.20;;;;;;;11.67;100.00;99016.58;273829;1269;22418;-76
2023/07/23 03:16:56;;;;;;;11.60;8.30;;;;;;;11.62;100.00;99015.42;273697;1258;145982;-77
2023/07/23 03:22:58;;;;;;;9.40;8.40;;;;;;;11.61;100.00;99011.97;273480;1267;23529;-78
2023/07/23 03:28:59;;;;;;;12.00;7.70;;;;;;;11.66;100.00;99011.86;273612;1255;22758;-77
2023/07/23 03:35:04;;;;;;;10.30;8.10;;;;;;;11.69;100.00;99013.52;273525;1263;22377;-79
2023/07/23 03:41:06;;;;;;;9.80;7.90;;;;;;;11.76;100.00;99017.89;273242;1267;22477;-77
2023/07/23 03:47:14;;;;;;;12.90;7.80;;;;;;;11.82;100.00;99018.01;273499;1266;22335;-76
2023/07/23 03:53:15;;;;;;;11.10;7.70;;;;;;;11.88;100.00;99012.71;273274;1266;23402;-77
2023/07/23 03:59:17;;;;;;;11.40;8.80;;;;;;;11.97;100.00;99014.96;273674;1256;23396;-77
2023/07/23 04:05:18;;;;;;;9.50;7.50;;;;;;;12.04;100.00;99008.73;273644;1267;22192;-78
2023/07/23 04:11:20;;;;;;;10.90;8.50;;;;;;;12.15;100.00;99014.20;272985;1269;23119;-77
2023/07/23 04:17:22;;;;;;;10.20;8.00;;;;;;;12.29;100.00;99014.36;273027;1269;22563;-77
2023/07/23 04:23:24;;;;;;;14.10;10.30;;;;;;;12.44;100.00;99014.02;270774;1259;22772;-77
2023/07/23 04:29:25;;;;;;;17.30;10.10;;;;;;;12.56;100.00;99016.19;270389;1269;23315;-77
2023/07/23 04:35:27;;;;;;;11.30;8.80;;;;;;;12.68;100.00;99017.86;273345;1259;22524;-77
2023/07/23 04:41:30;;;;;;;15.00;10.30;;;;;;;12.86;100.00;99018.53;271706;1259;22622;-77
2023/07/23 04:47:32;;;;;;;14.60;9.90;;;;;;;13.00;100.00;99014.04;272001;1269;22391;-78
2023/07/23 04:53:34;;;;;;;11.50;8.60;;;;;;;13.14;100.00;99007.48;272822;1269;22199;-79
2023/07/23 04:59:35;;;;;;;12.90;9.80;;;;;;;13.28;100.00;99001.90;272178;1269;22460;-77
2023/07/23 05:05:41;;;;;;;12.60;8.80;;;;;;;13.42;100.00;99001.75;273555;1269;22282;-79
2023/07/23 05:11:48;;;;;;;10.20;8.40;;;;;;;13.58;100.00;98996.09;273565;1268;22362;-81
2023/07/23 05:17:51;;;;;;;9.50;8.20;;;;;;;13.74;100.00;99002.20;273669;1269;22453;-78
2023/07/23 05:23:52;;;;;;;13.30;8.70;;;;;;;13.92;100.00;98998.40;273520;1269;22395;-80
2023/07/23 05:29:54;;;;;;;13.20;8.50;;;;;;;14.14;100.00;98995.02;272865;1260;22400;-78
2023/07/23 05:35:56;;;;;;;9.60;7.90;;;;;;;14.46;100.00;99002.71;273725;1269;22275;-78
2023/07/23 05:41:57;;;;;;;11.70;8.00;;;;;;;14.85;100.00;99001.73;273560;1261;22482;-78
2023/07/23 05:47:59;;;;;;;9.30;7.50;;;;;;;15.16;100.00;99001.37;273632;1260;22401;-78
2023/07/23 05:54:00;;;;;;;10.20;8.30;;;;;;;15.45;100.00;99003.15;273636;1269;22454;-78
2023/07/23 06:00:03;;;;;;;9.00;7.50;;;;;;;15.72;100.00;99001.81;273631;1269;22366;-81
2023/07/23 06:06:13;;;;;;;8.50;7.30;;;;;;;15.95;100.00;98999.77;273362;1262;22303;-79
2023/07/23 06:12:14;;;;;;;9.80;8.20;;;;;;;16.19;100.00;99006.75;273478;1256;22673;-78
2023/07/23 06:18:16;;;;;;;10.30;7.20;;;;;;;16.54;100.00;99002.27;273540;1269;22204;-80
2023/07/23 06:24:18;;;;;;;9.00;6.50;;;;;;;16.92;100.00;98994.02;273808;1269;22356;-78
2023/07/23 06:30:19;;;;;;;9.10;6.40;;;;;;;17.20;100.00;98994.30;273762;1268;22447;-78
2023/07/23 06:36:21;;;;;;;10.20;5.90;;;;;;;17.41;100.00;98995.16;273523;1269;22384;-78
2023/07/23 06:42:23;;;;;;;9.50;5.80;;;;;;;17.55;99.81;98996.77;272980;1269;22401;-79
2023/07/23 06:48:28;;;;;;;7.40;4.90;;;;;;;17.67;99.60;98996.66;273550;1269;22754;-78
2023/07/23 06:54:31;;;;;;;7.30;5.50;;;;;;;17.80;99.79;98995.23;273526;1267;22574;-80
2023/07/23 07:00:33;;;;;;;8.60;5.10;;;;;;;17.94;99.39;98983.48;273728;1259;22539;-78
2023/07/23 07:06:34;;;;;;;9.10;5.20;;;;;;;18.12;99.17;98980.95;273778;1269;22253;-79
2023/07/23 07:12:59;;;;;;;8.00;5.10;;;;;;;18.34;99.15;98981.86;273513;1269;22395;-79
2023/07/23 07:19:00;;;;;;;14.70;4.80;;;;;;;18.59;98.91;98975.89;273692;1269;22667;-79
2023/07/23 07:25:02;;;;;;;5.50;4.90;;;;;;;18.76;98.10;98972.35;273658;1259;22355;-79
2023/07/23 07:31:04;;;;;;;6.20;4.60;;;;;;;18.98;97.98;98967.09;273529;1269;23384;-80
2023/07/23 07:37:06;;;;;;;6.90;4.70;;;;;;;19.34;97.74;98963.48;273517;1269;22410;-79
2023/07/23 07:43:08;;;;;;;7.00;4.60;;;;;;;19.91;96.90;98960.26;273615;1269;22400;-78
2023/07/23 07:49:09;;;;;;;4.10;3.70;;;;;;;20.39;95.70;98957.27;273571;1266;23398;-79
2023/07/23 07:55:12;;;;;;;4.50;3.70;;;;;;;20.89;94.29;98951.33;273681;1269;22242;-79
2023/07/23 08:01:15;;;;;;;8.30;4.20;;;;;;;21.33;92.60;98951.73;273385;1269;22441;-78
2023/07/23 08:07:19;;;;;;;4.50;3.90;;;;;;;21.60;91.31;98946.55;273387;1269;22379;-79
2023/07/23 08:13:30;;;;;;;5.00;3.80;;;;;;;21.92;90.73;98941.95;273428;1269;22941;-78
2023/07/23 08:19:32;;;;;;;4.10;3.10;;;;;;;22.11;87.95;98939.95;273440;1269;22198;-78
2023/07/23 08:25:36;;;;;;;3.70;2.90;;;;;;;22.29;85.64;98937.98;273560;1265;22367;-79
2023/07/23 08:31:39;;;;;;;6.20;2.90;;;;;;;22.49;84.80;98931.17;273561;1267;22198;-78
2023/07/23 08:37:40;;;;;;;4.20;3.00;;;;;;;22.69;82.82;98930.73;273550;1257;23788;-78
2023/07/23 08:44:17;;;;;;;4.70;3.20;;;;;;;23.02;80.65;98924.89;273393;1266;22193;-78
2023/07/23 08:50:51;;;;;;;5.80;3.10;;;;;;;23.44;79.92;98917.38;273496;1267;22451;-78
2023/07/23 08:56:54;;;;;;;3.10;2.30;;;;;;;23.82;76.88;98918.05;273540;1269;22365;-79
2023/07/23 09:03:04;;;;;;;3.40;2.20;;;;;;;24.15;75.12;98917.22;273651;1269;23199;-78
2023/07/23 09:09:08;;;;;;;5.00;2.40;;;;;;;24.39;72.26;98914.45;273410;1272;22380;-78
2023/07/23 09:15:12;;;;;;;4.10;2.10;;;;;;;24.62;69.95;98908.27;273566;1269;23010;-78
2023/07/23 09:21:34;;;;;;;4.10;2.00;;;;;;;24.80;66.41;98907.36;273354;1270;22447;-79
2023/07/23 09:27:36;;;;;;;2.90;2.20;;;;;;;25.21;66.73;98905.59;273547;1269;22374;-79
2023/07/23 09:33:38;;;;;;;2.50;1.80;;;;;;;25.63;65.89;98895.88;273218;1269;22387;-79
2023/07/23 09:40:06;;;;;;;4.40;2.40;;;;;;;26.09;64.03;98891.71;272989;1269;23959;-78
2023/07/23 09:46:44;;;;;;;5.40;2.00;;;;;;;26.66;62.01;98885.23;273253;1269;22401;-80
2023/07/23 09:52:56;;;;;;;5.60;2.30;;;;;;;27.29;59.81;98878.11;273410;1269;22598;-80
2023/07/23 09:58:59;;;;;;;2.20;1.80;;;;;;;27.88;57.94;98880.67;271001;1270;22527;-78
2023/07/23 10:05:01;;;;;;;2.70;1.90;;;;;;;28.24;56.90;98881.68;270837;1269;22715;-77
2023/07/23 10:11:03;;;;;;;4.90;1.90;;;;;;;28.42;56.13;98879.27;273589;1257;22436;-78
2023/07/23 10:17:05;;;;;;;2.70;1.80;;;;;;;28.72;54.20;98878.41;273359;1269;22253;-80
2023/07/23 10:23:08;;;;;;;3.00;2.00;;;;;;;28.88;52.79;98879.98;273289;1261;22466;-80
2023/07/23 10:29:32;;;;;;;3.20;2.00;;;;;;;29.19;51.39;98868.82;273545;1269;23651;-80
2023/07/23 10:35:52;;;;;;;2.30;1.80;;;;;;;29.44;50.40;98864.86;273613;1269;22448;-78
2023/07/23 10:42:05;;;;;;;3.20;2.40;;;;;;;29.51;49.58;98857.52;273668;1269;22375;-79
2023/07/23 10:48:17;;;;;;;4.40;2.10;;;;;;;29.45;48.03;98856.21;273424;1269;22401;-81
2023/07/23 10:54:20;;;;;;;3.20;2.10;;;;;;;29.25;46.99;98856.67;273534;1269;22384;-79
2023/07/23 11:00:22;;;;;;;2.60;1.90;;;;;;;29.38;46.64;98848.22;273600;1269;22272;-80
2023/07/23 11:06:56;;;;;;;3.70;2.20;;;;;;;29.13;45.52;98847.48;273588;1267;22389;-80
2023/07/23 11:12:59;;;;;;;3.40;2.20;;;;;;;29.19;44.30;98839.01;273703;1266;22447;-79
2023/07/23 11:19:07;;;;;;;5.90;2.20;;;;;;;29.38;43.64;98829.27;273815;1267;22348;-78
2023/07/23 11:25:15;;;;;;;3.60;2.10;;;;;;;28.81;43.92;98825.67;273788;1257;23361;-79
2023/07/23 11:31:17;;;;;;;3.30;2.10;;;;;;;28.40;44.08;98825.04;272868;1266;23424;-79
2023/07/23 11:37:40;;;;;;;4.60;2.60;;;;;;;28.20;44.27;98821.17;271760;1257;22561;-78
2023/07/23 11:43:43;;;;;;;3.20;2.50;;;;;;;28.16;44.91;98814.64;273222;1266;22547;-80
2023/07/23 11:49:45;;;;;;;3.50;2.10;;;;;;;28.62;44.97;98802.60;273430;1254;23684;-78
2023/07/23 11:55:46;;;;;;;3.50;2.80;;;;;;;29.07;44.55;98810.89;273482;1263;23365;-78
2023/07/23 12:01:48;;;;;;;3.40;2.20;;;;;;;29.40;43.79;98805.33;273589;1259;22378;-78
2023/07/23 12:07:56;;;;;;;3.00;2.20;;;;;;;29.40;43.90;98797.28;273643;1268;22421;-78
2023/07/23 12:14:06;;;;;;;3.10;2.80;;;;;;;29.11;43.63;98795.19;273494;1269;23201;-78
2023/07/23 12:20:09;;;;;;;6.10;2.60;;;;;;;28.61;43.34;98791.17;273584;1269;22473;-78
2023/07/23 12:26:11;;;;;;;3.60;1.80;;;;;;;28.33;43.48;98786.02;273611;1269;23012;-77
2023/07/23 12:32:15;;;;;;;3.60;2.50;;;;;;;28.26;43.51;98788.98;273484;1270;22614;-78
2023/07/23 12:38:17;;;;;;;3.30;2.50;;;;;;;28.23;43.34;98779.30;273724;1257;23321;-77
2023/07/23 12:44:58;;;;;;;3.10;2.40;;;;;;;28.00;42.20;98776.58;273633;1268;22435;-79
2023/07/23 12:51:02;;;;;;;3.20;2.40;;;;;;;27.79;42.50;98770.92;273651;1268;23326;-80
2023/07/23 12:57:04;;;;;;;3.10;2.40;;;;;;;27.75;42.93;98761.89;273598;1269;22451;-78
2023/07/23 13:03:09;;;;;;;3.10;2.10;;;;;;;27.57;43.01;98756.73;273664;1254;22096;-78
2023/07/23 13:09:11;;;;;;;6.40;2.40;;;;;;;27.43;43.26;98748.20;273712;1267;22414;-78
2023/07/23 13:15:13;;;;;;;3.60;2.50;;;;;;;27.34;43.18;98747.54;273772;1267;22396;-77
2023/07/23 13:21:15;;;;;;;3.60;2.60;;;;;;;27.30;42.83;98737.67;273539;1259;22736;-79
2023/07/23 13:27:21;;;;;;;3.90;2.80;;;;;;;27.31;42.52;98731.61;273671;1269;22425;-79
2023/07/23 13:33:23;;;;;;;3.90;2.30;;;;;;;27.30;42.64;98725.96;273375;1267;23181;-78
2023/07/23 13:39:24;;;;;;;3.30;2.30;;;;;;;27.21;42.36;98725.63;273421;1266;22372;-78
2023/07/23 13:45:26;;;;;;;3.60;2.50;;;;;;;27.27;42.26;98723.33;273491;1262;23837;-81
2023/07/23 13:51:28;;;;;;;3.20;2.40;;;;;;;27.25;42.74;98717.93;273644;1269;22542;-79
2023/07/23 13:57:30;;;;;;;4.50;2.90;;;;;;;27.05;43.49;98714.61;273462;1264;22355;-78
2023/07/23 14:03:33;;;;;;;3.20;2.50;;;;;;;26.85;43.37;98707.16;273826;1269;22199;-78
2023/07/23 14:09:35;;;;;;;4.70;2.20;;;;;;;26.83;43.25;98701.83;273804;1269;23854;-79
2023/07/23 14:15:36;;;;;;;5.90;2.90;;;;;;;26.86;43.27;98694.77;273843;1266;22408;-80
2023/07/23 14:21:39;;;;;;;2.70;2.40;;;;;;;26.95;43.86;98694.02;273766;1263;22274;-78
2023/07/23 14:27:40;;;;;;;4.30;2.60;;;;;;;26.96;42.97;98693.01;273611;1259;23200;-80
2023/07/23 14:33:42;;;;;;;3.80;2.20;;;;;;;26.98;42.79;98690.52;273743;1268;22389;-78
2023/07/23 14:40:08;;;;;;;4.10;2.90;;;;;;;26.81;43.34;98680.86;273472;1257;22624;-77
2023/07/23 14:46:30;;;;;;;5.10;2.50;;;;;;;26.68;43.07;98675.80;272143;1253;23222;-80
2023/07/23 14:52:35;;;;;;;3.50;2.10;;;;;;;26.68;43.32;98671.52;273779;1253;22279;-79
2023/07/23 14:58:37;;;;;;;6.80;2.50;;;;;;;26.60;43.97;98664.34;273690;1269;22376;-79
2023/07/23 15:04:38;;;;;;;3.80;2.20;;;;;;;26.56;43.90;98655.10;273725;1268;22237;-78
2023/07/23 15:10:41;;;;;;;4.10;2.90;;;;;;;26.63;44.02;98649.73;273760;1269;22188;-78
2023/07/23 15:16:43;;;;;;;5.60;2.30;;;;;;;26.62;43.84;98647.23;269967;1267;5093963;-78
2023/07/23 15:22:44;;;;;;;5.50;2.30;;;;;;;26.58;44.09;98644.80;273770;1268;22570;-78
2023/07/23 15:28:48;;;;;;;4.00;2.50;;;;;;;26.65;43.71;98647.27;273475;1269;26177;-79
2023/07/23 15:34:49;;;;;;;4.10;3.40;;;;;;;26.71;44.08;98643.33;272685;1268;23868;-79
2023/07/23 15:40:51;;;;;;;3.90;2.70;;;;;;;26.67;43.70;98639.08;271933;1256;22570;-79
2023/07/23 15:46:53;;;;;;;3.30;2.40;;;;;;;26.60;43.36;98631.41;273548;1269;22440;-80
2023/07/23 15:52:54;;;;;;;3.70;2.30;;;;;;;26.55;42.91;98623.59;273857;1268;22407;-80
2023/07/23 15:58:56;;;;;;;5.20;2.40;;;;;;;26.51;42.78;98623.17;273768;1269;22352;-77
2023/07/23 16:04:58;;;;;;;5.50;2.40;;;;;;;26.41;42.82;98622.33;273848;1269;22409;-80
2023/07/23 16:11:01;;;;;;;4.20;2.90;;;;;;;26.37;42.82;98613.20;273548;1267;22385;-80
2023/07/23 16:17:03;;;;;;;5.90;3.20;;;;;;;26.40;42.59;98609.66;273778;1268;23852;-80
2023/07/23 16:23:05;;;;;;;4.50;2.70;;;;;;;26.52;42.13;98604.72;273734;1253;22407;-79
2023/07/23 16:29:07;;;;;;;2.80;2.30;;;;;;;26.56;42.46;98603.48;273577;1269;23252;-80
2023/07/23 16:35:10;;;;;;;5.70;3.00;;;;;;;26.52;42.64;98600.52;273599;1268;23647;-79
2023/07/23 16:41:13;;;;;;;4.00;3.00;;;;;;;26.54;42.37;98594.59;273570;1269;22243;-80
2023/07/23 16:47:15;;;;;;;4.00;2.90;;;;;;;26.51;42.12;98591.65;273623;1265;23117;-79
2023/07/23 16:53:20;;;;;;;5.70;2.80;;;;;;;26.40;42.32;98592.32;273634;1257;22454;-79
2023/07/23 16:59:22;;;;;;;3.40;2.50;;;;;;;26.28;42.66;98591.26;273402;1269;23253;-79
2023/07/23 17:05:23;;;;;;;6.60;3.00;;;;;;;26.18;43.16;98588.20;273664;1268;22379;-79
2023/07/23 17:11:41;;;;;;;3.90;3.00;;;;;;;26.15;43.12;98586.27;273637;1268;22388;-80
2023/07/23 17:17:44;;;;;;;4.20;2.90;;;;;;;26.16;43.24;98583.80;273721;1268;22364;-80
2023/07/23 17:23:45;;;;;;;2.80;2.40;;;;;;;26.13;43.87;98582.77;273782;1253;22428;-79
2023/07/23 17:29:51;;;;;;;4.50;2.80;;;;;;;26.07;43.77;98573.52;273668;1268;22407;-81
2023/07/23 17:35:53;;;;;;;3.80;2.60;;;;;;;26.01;43.90;98568.13;273697;1269;22574;-80
2023/07/23 17:41:55;;;;;;;5.50;2.70;;;;;;;25.91;44.26;98561.52;273635;1269;22449;-79
2023/07/23 17:47:59;;;;;;;4.70;2.70;;;;;;;25.77;44.21;98557.60;273691;1269;22379;-79
2023/07/23 17:54:11;;;;;;;5.00;3.30;;;;;;;25.60;44.75;98557.20;273500;1269;22215;-80
2023/07/23 18:00:13;;;;;;;4.20;2.90;;;;;;;25.38;45.20;98556.20;273477;1269;22389;-80
2023/07/23 18:06:15;;;;;;;4.70;3.40;;;;;;;25.13;45.78;98556.13;273605;1258;23158;-79
2023/07/23 18:12:17;;;;;;;4.70;3.30;;;;;;;24.85;46.48;98553.95;273416;1267;22341;-80
2023/07/23 18:18:19;;;;;;;4.90;3.50;;;;;;;24.58;46.79;98555.43;273581;1269;22487;-79
2023/07/23 18:24:21;;;;;;;3.80;3.20;;;;;;;24.31;47.50;98556.30;273515;1268;22523;-77
2023/07/23 18:30:30;;;;;;;4.90;3.60;;;;;;;24.01;48.22;98549.03;273665;1269;22362;-79
2023/07/23 18:36:34;;;;;;;5.10;3.40;;;;;;;23.67;49.86;98548.06;273569;1269;22439;-79
2023/07/23 18:42:35;;;;;;;5.40;3.30;;;;;;;23.40;50.62;98552.42;273653;1269;22327;-79
2023/07/23 18:48:37;;;;;;;6.20;3.70;;;;;;;23.20;50.46;98553.75;273637;1256;22392;-80
2023/07/23 18:54:39;;;;;;;5.00;3.70;;;;;;;22.99;50.81;98553.68;273393;1269;22395;-80
2023/07/23 19:00:44;;;;;;;5.40;3.10;;;;;;;22.77;51.40;98554.04;273460;1269;23232;-80
2023/07/23 19:06:46;;;;;;;5.60;4.20;;;;;;;22.53;51.98;98557.16;273593;1267;23374;-80
2023/07/23 19:12:47;;;;;;;8.00;3.60;;;;;;;22.30;52.89;98556.09;273314;1269;22389;-80
2023/07/23 19:18:49;;;;;;;7.60;3.30;;;;;;;22.10;53.33;98552.25;273325;1269;23124;-79
2023/07/23 19:24:50;;;;;;;6.30;4.10;;;;;;;22.11;53.33;98548.89;273444;1269;22936;-80
2023/07/23 19:30:52;;;;;;;5.70;3.60;;;;;;;22.08;53.11;98547.58;273410;1269;23483;-79
2023/07/23 19:36:54;;;;;;;6.80;3.90;;;;;;;22.00;53.46;98551.56;273492;1269;22452;-79
2023/07/23 19:42:55;;;;;;;5.30;4.00;;;;;;;21.90;53.81;98552.21;273299;1262;22371;-79
2023/07/23 19:48:57;;;;;;;5.30;3.40;;;;;;;21.85;54.13;98549.23;273240;1265;22353;-79
2023/07/23 19:55:00;;;;;;;5.80;3.00;;;;;;;21.76;54.90;98546.19;273209;1269;22238;-78
2023/07/23 20:01:02;;;;;;;5.20;3.70;;;;;;;21.69;54.03;98540.00;273429;1261;22486;-81
2023/07/23 20:07:04;;;;;;;7.20;4.20;;;;;;;21.69;54.17;98539.91;273509;1269;23598;-78
2023/07/23 20:13:06;;;;;;;8.00;5.50;;;;;;;21.66;54.64;98536.27;273504;1256;22425;-80
2023/07/23 20:19:09;;;;;;;6.30;4.20;;;;;;;21.73;54.12;98535.38;273356;1268;23560;-79
2023/07/23 20:25:11;;;;;;;5.80;3.90;;;;;;;21.82;54.28;98535.60;273489;1269;23510;-78
2023/07/23 20:31:17;;;;;;;6.50;3.50;;;;;;;21.81;53.82;98530.92;273426;1269;22387;-79
2023/07/23 20:37:20;;;;;;;6.50;3.70;;;;;;;21.79;53.98;98528.39;273665;1269;22641;-79
2023/07/23 20:43:21;;;;;;;5.80;3.30;;;;;;;21.88;53.57;98521.02;273660;1265;22381;-80
2023/07/23 20:49:28;;;;;;;5.40;3.40;;;;;;;22.11;52.92;98519.56;273639;1268;22234;-78
2023/07/23 20:55:31;;;;;;;;;;;;;;;22.41;52.38;98521.50;273576;1269;22506;-79
2023/07/23 21:01:36;;;;;;;5.30;3.10;;;;;;;22.53;51.84;98522.48;273768;1269;22454;-80
2023/07/23 21:07:48;;;;;;;5.20;3.20;;;;;;;22.45;51.36;98529.95;273809;1258;22260;-78
2023/07/23 21:13:50;;;;;;;4.20;3.20;;;;;;;22.25;51.25;98531.77;273798;1269;22406;-79
2023/07/23 21:19:51;;;;;;;4.80;3.30;;;;;;;22.05;51.65;98539.73;273560;1269;22397;-80
2023/07/23 21:25:59;;;;;;;6.10;3.80;;;;;;;21.84;51.99;98541.96;273866;1253;23088;-79
2023/07/23 21:32:21;;;;;;;5.80;4.00;;;;;;;21.61;52.97;98545.02;273804;1260;23472;-79
2023/07/23 21:38:23;;;;;;;5.80;3.80;;;;;;;21.37;53.61;98540.56;273595;1269;22382;-79
2023/07/23 21:44:24;;;;;;;5.40;3.60;;;;;;;21.18;54.23;98534.71;273758;1269;22489;-79
2023/07/23 21:50:26;;;;;;;6.10;3.20;;;;;;;20.99;54.64;98532.34;273752;1269;23449;-79
2023/07/23 21:56:28;;;;;;;8.10;3.60;;;;;;;20.88;54.77;98534.95;273783;1269;22617;-79
2023/07/23 22:02:30;;;;;;;8.00;3.80;;;;;;;20.84;55.29;98531.71;273874;1269;22178;-80
2023/07/23 22:08:32;;;;;;;5.90;3.30;;;;;;;20.78;55.78;98527.88;273611;1259;22203;-79
2023/07/23 22:14:34;;;;;;;5.50;3.30;;;;;;;20.76;56.66;98529.38;273793;1269;22540;-80
2023/07/23 22:20:36;;;;;;;8.00;3.30;;;;;;;20.59;56.97;98527.31;273882;1269;23579;-79
2023/07/23 22:26:57;;;;;;;6.40;3.50;;;;;;;20.46;57.05;98523.29;273865;1270;22403;-78
2023/07/23 22:33:01;;;;;;;5.60;3.70;;;;;;;20.36;57.71;98519.31;273862;1269;23112;-78
2023/07/23 22:39:12;;;;;;;5.40;3.80;;;;;;;20.22;58.10;98514.98;273922;1269;22413;-77
2023/07/23 22:45:14;;;;;;;5.20;3.50;;;;;;;20.12;58.50;98513.48;273631;1269;23344;-79
2023/07/23 22:51:16;;;;;;;8.00;3.40;;;;;;;20.03;58.76;98508.73;273804;1269;22401;-79
2023/07/23 22:57:18;;;;;;;5.60;3.20;;;;;;;19.89;59.21;98510.23;272054;1264;22552;-78
2023/07/23 23:03:19;;;;;;;6.50;4.10;;;;;;;19.77;60.30;98507.39;270679;1269;23649;-79
2023/07/23 23:09:22;;;;;;;6.50;3.90;;;;;;;19.66;60.57;98498.79;269994;1269;22585;-79
2023/07/23 23:15:23;;;;;;;5.00;3.50;;;;;;;19.58;60.99;98496.56;272638;1269;22438;-80
2023/07/23 23:21:25;;;;;;;6.30;3.70;;;;;;;19.48;61.82;98490.48;273758;1269;23416;-79
2023/07/23 23:27:34;;;;;;;6.00;3.30;;;;;;;19.45;62.46;98492.11;271100;1269;22539;-81
2023/07/23 23:33:57;;;;;;;6.00;3.30;;;;;;;19.41;62.55;98489.77;270870;1269;22806;-79
2023/07/23 23:40:03;;;;;;;5.40;3.20;;;;;;;19.31;62.44;98490.17;271566;1269;22698;-79
2023/07/23 23:46:05;;;;;;;4.40;3.00;;;;;;;19.26;62.73;98481.20;271402;1260;22202;-79
2023/07/23 23:52:07;;;;;;;6.30;3.40;;;;;;;19.22;63.14;98474.73;272765;1269;22391;-78
2023/07/23 23:58:08;;;;;;;6.00;3.60;;;;;;;19.18;63.50;98469.71;273761;1269;22444;-79
